sensor_id;sensor_type;location;lat;lon;timestamp;P1;durP1;ratioP1;P2;durP2;ratioP2
76107;SDS011;64834;52.516;10.528;2023-02-13T00:02:17;20.10;;;8.77;;
76107;SDS011;64834;52.516;10.528;2023-02-13T00:04:42;19.27;;;9.38;;
76107;SDS011;64834;52.516;10.528;2023-02-13T00:07:08;21.30;;;8.80;;
76107;SDS011;64834;52.516;10.528;2023-02-13T00:09:35;19.08;;;8.57;;
76107;SDS011;64834;52.516;10.528;2023-02-13T00:12:01;18.05;;;8.70;;
76107;SDS011;64834;52.516;10.528;2023-02-13T00:14:26;20.58;;;8.90;;
76107;SDS011;64834;52.516;10.528;2023-02-13T00:16:52;20.05;;;8.75;;
76107;SDS011;64834;52.516;10.528;2023-02-13T00:19:17;17.35;;;8.13;;
76107;SDS011;64834;52.516;10.528;2023-02-13T00:21:42;19.02;;;8.65;;
76107;SDS011;64834;52.516;10.528;2023-02-13T00:24:08;20.70;;;9.38;;
76107;SDS011;64834;52.516;10.528;2023-02-13T00:26:33;19.13;;;9.40;;
76107;SDS011;64834;52.516;10.528;2023-02-13T00:28:58;18.83;;;8.40;;
76107;SDS011;64834;52.516;10.528;2023-02-13T00:31:24;18.55;;;8.68;;
76107;SDS011;64834;52.516;10.528;2023-02-13T00:33:49;19.90;;;9.15;;
76107;SDS011;64834;52.516;10.528;2023-02-13T00:36:15;18.05;;;9.02;;
76107;SDS011;64834;52.516;10.528;2023-02-13T00:38:45;18.95;;;8.93;;
76107;SDS011;64834;52.516;10.528;2023-02-13T00:41:11;19.75;;;9.20;;
76107;SDS011;64834;52.516;10.528;2023-02-13T00:43:37;24.15;;;9.73;;
76107;SDS011;64834;52.516;10.528;2023-02-13T00:46:03;20.63;;;10.07;;
76107;SDS011;64834;52.516;10.528;2023-02-13T00:48:30;22.20;;;9.73;;
76107;SDS011;64834;52.516;10.528;2023-02-13T00:50:57;22.88;;;9.43;;
76107;SDS011;64834;52.516;10.528;2023-02-13T00:53:22;23.25;;;10.40;;
76107;SDS011;64834;52.516;10.528;2023-02-13T00:55:50;22.33;;;9.93;;
76107;SDS011;64834;52.516;10.528;2023-02-13T00:58:16;23.23;;;10.48;;
76107;SDS011;64834;52.516;10.528;2023-02-13T01:00:42;24.63;;;10.05;;
76107;SDS011;64834;52.516;10.528;2023-02-13T01:03:08;22.98;;;9.63;;
76107;SDS011;64834;52.516;10.528;2023-02-13T01:05:34;24.95;;;10.15;;
76107;SDS011;64834;52.516;10.528;2023-02-13T01:07:59;27.80;;;11.38;;
76107;SDS011;64834;52.516;10.528;2023-02-13T01:10:25;20.02;;;9.65;;
76107;SDS011;64834;52.516;10.528;2023-02-13T01:12:51;22.05;;;10.05;;
76107;SDS011;64834;52.516;10.528;2023-02-13T01:15:17;22.63;;;10.07;;
76107;SDS011;64834;52.516;10.528;2023-02-13T01:17:42;22.45;;;9.93;;
76107;SDS011;64834;52.516;10.528;2023-02-13T01:20:09;21.75;;;9.63;;
76107;SDS011;64834;52.516;10.528;2023-02-13T01:25:01;22.13;;;9.47;;
76107;SDS011;64834;52.516;10.528;2023-02-13T01:27:27;20.52;;;9.38;;
76107;SDS011;64834;52.516;10.528;2023-02-13T01:29:53;23.60;;;9.60;;
76107;SDS011;64834;52.516;10.528;2023-02-13T01:32:18;20.63;;;9.70;;
76107;SDS011;64834;52.516;10.528;2023-02-13T01:34:44;19.27;;;8.95;;
76107;SDS011;64834;52.516;10.528;2023-02-13T01:37:09;21.40;;;9.48;;
76107;SDS011;64834;52.516;10.528;2023-02-13T01:39:35;20.80;;;8.98;;
76107;SDS011;64834;52.516;10.528;2023-02-13T01:42:00;20.98;;;9.27;;
76107;SDS011;64834;52.516;10.528;2023-02-13T01:44:44;18.55;;;9.07;;
76107;SDS011;64834;52.516;10.528;2023-02-13T01:47:12;21.45;;;9.30;;
76107;SDS011;64834;52.516;10.528;2023-02-13T01:49:40;22.60;;;9.68;;
76107;SDS011;64834;52.516;10.528;2023-02-13T01:52:09;19.95;;;9.73;;
76107;SDS011;64834;52.516;10.528;2023-02-13T01:54:35;22.00;;;9.48;;
76107;SDS011;64834;52.516;10.528;2023-02-13T01:57:12;18.15;;;9.07;;
76107;SDS011;64834;52.516;10.528;2023-02-13T01:59:51;20.05;;;9.20;;
76107;SDS011;64834;52.516;10.528;2023-02-13T02:02:19;21.73;;;9.88;;
76107;SDS011;64834;52.516;10.528;2023-02-13T02:04:45;21.15;;;9.75;;
76107;SDS011;64834;52.516;10.528;2023-02-13T02:07:30;22.88;;;10.45;;
76107;SDS011;64834;52.516;10.528;2023-02-13T02:10:01;24.52;;;10.63;;
76107;SDS011;64834;52.516;10.528;2023-02-13T02:12:46;24.63;;;9.95;;
76107;SDS011;64834;52.516;10.528;2023-02-13T02:15:18;28.02;;;12.07;;
76107;SDS011;64834;52.516;10.528;2023-02-13T02:17:45;25.98;;;11.25;;
76107;SDS011;64834;52.516;10.528;2023-02-13T02:22:57;23.02;;;9.80;;
76107;SDS011;64834;52.516;10.528;2023-02-13T02:26:05;24.10;;;10.27;;
76107;SDS011;64834;52.516;10.528;2023-02-13T02:40:31;23.85;;;10.35;;
76107;SDS011;64834;52.516;10.528;2023-02-13T02:46:30;24.08;;;10.00;;
76107;SDS011;64834;52.516;10.528;2023-02-13T02:49:05;29.15;;;10.55;;
76107;SDS011;64834;52.516;10.528;2023-02-13T02:52:03;22.95;;;9.77;;
76107;SDS011;64834;52.516;10.528;2023-02-13T02:54:41;20.73;;;9.70;;
76107;SDS011;64834;52.516;10.528;2023-02-13T02:57:31;23.27;;;10.43;;
76107;SDS011;64834;52.516;10.528;2023-02-13T03:00:19;21.33;;;10.00;;
76107;SDS011;64834;52.516;10.528;2023-02-13T03:03:20;24.65;;;9.82;;
76107;SDS011;64834;52.516;10.528;2023-02-13T03:06:10;20.45;;;10.10;;
76107;SDS011;64834;52.516;10.528;2023-02-13T03:08:41;22.75;;;10.00;;
76107;SDS011;64834;52.516;10.528;2023-02-13T03:11:28;21.73;;;9.48;;
76107;SDS011;64834;52.516;10.528;2023-02-13T03:14:12;26.33;;;11.35;;
76107;SDS011;64834;52.516;10.528;2023-02-13T03:16:41;23.42;;;10.90;;
76107;SDS011;64834;52.516;10.528;2023-02-13T03:19:47;23.23;;;9.88;;
76107;SDS011;64834;52.516;10.528;2023-02-13T03:22:57;21.42;;;10.73;;
76107;SDS011;64834;52.516;10.528;2023-02-13T03:25:35;23.30;;;9.95;;
76107;SDS011;64834;52.516;10.528;2023-02-13T03:28:18;23.00;;;10.07;;
76107;SDS011;64834;52.516;10.528;2023-02-13T03:31:37;21.10;;;10.02;;
76107;SDS011;64834;52.516;10.528;2023-02-13T03:34:12;21.38;;;9.98;;
76107;SDS011;64834;52.516;10.528;2023-02-13T03:36:46;21.35;;;9.80;;
76107;SDS011;64834;52.516;10.528;2023-02-13T03:45:13;22.52;;;10.18;;
76107;SDS011;64834;52.516;10.528;2023-02-13T03:48:03;26.08;;;9.98;;
76107;SDS011;64834;52.516;10.528;2023-02-13T03:50:35;24.63;;;10.20;;
76107;SDS011;64834;52.516;10.528;2023-02-13T03:53:07;25.92;;;10.18;;
76107;SDS011;64834;52.516;10.528;2023-02-13T03:55:42;25.48;;;10.43;;
76107;SDS011;64834;52.516;10.528;2023-02-13T03:58:37;30.83;;;11.02;;
76107;SDS011;64834;52.516;10.528;2023-02-13T04:01:26;23.70;;;10.95;;
76107;SDS011;64834;52.516;10.528;2023-02-13T04:04:06;26.67;;;11.32;;
76107;SDS011;64834;52.516;10.528;2023-02-13T04:09:24;23.35;;;10.35;;
76107;SDS011;64834;52.516;10.528;2023-02-13T04:17:16;25.40;;;10.45;;
76107;SDS011;64834;52.516;10.528;2023-02-13T04:19:46;24.33;;;10.25;;
76107;SDS011;64834;52.516;10.528;2023-02-13T04:22:12;25.15;;;11.45;;
76107;SDS011;64834;52.516;10.528;2023-02-13T04:24:37;25.52;;;11.15;;
76107;SDS011;64834;52.516;10.528;2023-02-13T04:27:03;27.02;;;11.43;;
76107;SDS011;64834;52.516;10.528;2023-02-13T04:29:28;24.80;;;11.05;;
76107;SDS011;64834;52.516;10.528;2023-02-13T04:31:53;25.30;;;11.20;;
76107;SDS011;64834;52.516;10.528;2023-02-13T04:34:19;24.08;;;10.48;;
76107;SDS011;64834;52.516;10.528;2023-02-13T04:36:44;21.90;;;9.82;;
76107;SDS011;64834;52.516;10.528;2023-02-13T04:39:10;28.73;;;10.55;;
76107;SDS011;64834;52.516;10.528;2023-02-13T04:41:35;27.77;;;12.15;;
76107;SDS011;64834;52.516;10.528;2023-02-13T04:44:01;27.80;;;11.27;;
76107;SDS011;64834;52.516;10.528;2023-02-13T04:46:26;25.25;;;11.07;;
76107;SDS011;64834;52.516;10.528;2023-02-13T04:48:51;25.05;;;11.48;;
76107;SDS011;64834;52.516;10.528;2023-02-13T04:51:17;30.17;;;11.52;;
76107;SDS011;64834;52.516;10.528;2023-02-13T04:53:42;31.85;;;12.88;;
76107;SDS011;64834;52.516;10.528;2023-02-13T04:56:07;32.78;;;12.60;;
76107;SDS011;64834;52.516;10.528;2023-02-13T04:58:33;28.15;;;12.70;;
76107;SDS011;64834;52.516;10.528;2023-02-13T05:00:58;38.85;;;17.38;;
76107;SDS011;64834;52.516;10.528;2023-02-13T05:03:23;41.05;;;16.23;;
76107;SDS011;64834;52.516;10.528;2023-02-13T05:05:48;32.97;;;15.38;;
76107;SDS011;64834;52.516;10.528;2023-02-13T05:08:14;32.33;;;14.77;;
76107;SDS011;64834;52.516;10.528;2023-02-13T05:10:39;31.02;;;14.90;;
76107;SDS011;64834;52.516;10.528;2023-02-13T05:13:05;35.25;;;14.75;;
76107;SDS011;64834;52.516;10.528;2023-02-13T05:15:30;32.80;;;14.82;;
76107;SDS011;64834;52.516;10.528;2023-02-13T05:17:56;31.67;;;14.40;;
76107;SDS011;64834;52.516;10.528;2023-02-13T05:20:21;34.08;;;15.10;;
76107;SDS011;64834;52.516;10.528;2023-02-13T05:22:47;37.05;;;15.63;;
76107;SDS011;64834;52.516;10.528;2023-02-13T05:25:33;36.67;;;15.90;;
76107;SDS011;64834;52.516;10.528;2023-02-13T05:27:59;31.83;;;15.35;;
76107;SDS011;64834;52.516;10.528;2023-02-13T05:30:25;32.83;;;15.20;;
76107;SDS011;64834;52.516;10.528;2023-02-13T05:32:50;36.40;;;15.43;;
76107;SDS011;64834;52.516;10.528;2023-02-13T05:35:16;35.45;;;14.98;;
76107;SDS011;64834;52.516;10.528;2023-02-13T05:37:42;32.67;;;14.93;;
76107;SDS011;64834;52.516;10.528;2023-02-13T05:40:08;26.45;;;11.30;;
76107;SDS011;64834;52.516;10.528;2023-02-13T05:42:35;23.42;;;11.20;;
76107;SDS011;64834;52.516;10.528;2023-02-13T05:45:00;24.50;;;11.38;;
76107;SDS011;64834;52.516;10.528;2023-02-13T05:47:25;28.95;;;12.45;;
76107;SDS011;64834;52.516;10.528;2023-02-13T05:49:51;22.55;;;11.68;;
76107;SDS011;64834;52.516;10.528;2023-02-13T05:52:16;23.15;;;11.27;;
76107;SDS011;64834;52.516;10.528;2023-02-13T05:54:41;25.33;;;10.63;;
76107;SDS011;64834;52.516;10.528;2023-02-13T05:57:06;26.60;;;11.80;;
76107;SDS011;64834;52.516;10.528;2023-02-13T05:59:32;23.80;;;9.85;;
76107;SDS011;64834;52.516;10.528;2023-02-13T06:01:57;24.55;;;10.82;;
76107;SDS011;64834;52.516;10.528;2023-02-13T06:04:22;26.20;;;10.38;;
76107;SDS011;64834;52.516;10.528;2023-02-13T06:06:48;22.02;;;10.63;;
76107;SDS011;64834;52.516;10.528;2023-02-13T06:09:13;24.55;;;10.70;;
76107;SDS011;64834;52.516;10.528;2023-02-13T06:11:38;25.92;;;11.40;;
76107;SDS011;64834;52.516;10.528;2023-02-13T06:14:04;26.10;;;11.38;;
76107;SDS011;64834;52.516;10.528;2023-02-13T06:16:29;25.23;;;10.93;;
76107;SDS011;64834;52.516;10.528;2023-02-13T06:18:55;24.80;;;9.90;;
76107;SDS011;64834;52.516;10.528;2023-02-13T06:21:21;27.65;;;12.45;;
76107;SDS011;64834;52.516;10.528;2023-02-13T06:23:46;28.85;;;11.32;;
76107;SDS011;64834;52.516;10.528;2023-02-13T06:26:11;23.35;;;11.27;;
76107;SDS011;64834;52.516;10.528;2023-02-13T06:28:37;24.63;;;10.77;;
76107;SDS011;64834;52.516;10.528;2023-02-13T06:31:02;25.83;;;10.95;;
76107;SDS011;64834;52.516;10.528;2023-02-13T06:33:27;21.67;;;10.23;;
76107;SDS011;64834;52.516;10.528;2023-02-13T06:35:53;28.55;;;11.32;;
76107;SDS011;64834;52.516;10.528;2023-02-13T06:38:19;27.63;;;11.65;;
76107;SDS011;64834;52.516;10.528;2023-02-13T06:40:45;29.85;;;13.00;;
76107;SDS011;64834;52.516;10.528;2023-02-13T06:43:11;24.38;;;11.55;;
76107;SDS011;64834;52.516;10.528;2023-02-13T06:45:37;27.33;;;11.85;;
76107;SDS011;64834;52.516;10.528;2023-02-13T06:48:02;28.00;;;11.43;;
76107;SDS011;64834;52.516;10.528;2023-02-13T06:50:28;28.05;;;10.98;;
76107;SDS011;64834;52.516;10.528;2023-02-13T06:52:53;24.98;;;10.85;;
76107;SDS011;64834;52.516;10.528;2023-02-13T06:55:18;24.02;;;11.30;;
76107;SDS011;64834;52.516;10.528;2023-02-13T06:57:45;22.25;;;10.07;;
76107;SDS011;64834;52.516;10.528;2023-02-13T07:00:11;32.95;;;12.32;;
76107;SDS011;64834;52.516;10.528;2023-02-13T07:02:38;25.88;;;11.18;;
76107;SDS011;64834;52.516;10.528;2023-02-13T07:05:04;27.80;;;11.10;;
76107;SDS011;64834;52.516;10.528;2023-02-13T07:07:34;26.02;;;12.00;;
76107;SDS011;64834;52.516;10.528;2023-02-13T07:10:00;26.10;;;11.32;;
76107;SDS011;64834;52.516;10.528;2023-02-13T07:12:25;28.55;;;11.98;;
76107;SDS011;64834;52.516;10.528;2023-02-13T07:14:51;26.83;;;13.13;;
76107;SDS011;64834;52.516;10.528;2023-02-13T07:17:17;28.25;;;11.48;;
76107;SDS011;64834;52.516;10.528;2023-02-13T07:19:42;31.83;;;12.10;;
76107;SDS011;64834;52.516;10.528;2023-02-13T07:22:08;27.65;;;12.82;;
76107;SDS011;64834;52.516;10.528;2023-02-13T07:24:33;27.35;;;12.20;;
76107;SDS011;64834;52.516;10.528;2023-02-13T07:26:59;26.23;;;11.90;;
76107;SDS011;64834;52.516;10.528;2023-02-13T07:29:25;25.05;;;11.40;;
76107;SDS011;64834;52.516;10.528;2023-02-13T07:31:50;28.65;;;11.45;;
76107;SDS011;64834;52.516;10.528;2023-02-13T07:34:16;28.20;;;11.15;;
76107;SDS011;64834;52.516;10.528;2023-02-13T07:36:41;27.27;;;12.35;;
76107;SDS011;64834;52.516;10.528;2023-02-13T07:39:06;25.50;;;12.20;;
76107;SDS011;64834;52.516;10.528;2023-02-13T07:41:32;27.10;;;11.63;;
76107;SDS011;64834;52.516;10.528;2023-02-13T07:43:57;28.80;;;10.90;;
76107;SDS011;64834;52.516;10.528;2023-02-13T07:46:22;26.25;;;10.88;;
76107;SDS011;64834;52.516;10.528;2023-02-13T07:48:47;27.20;;;11.40;;
76107;SDS011;64834;52.516;10.528;2023-02-13T07:51:16;26.98;;;12.00;;
76107;SDS011;64834;52.516;10.528;2023-02-13T07:53:41;25.73;;;11.20;;
76107;SDS011;64834;52.516;10.528;2023-02-13T07:56:07;26.63;;;11.10;;
76107;SDS011;64834;52.516;10.528;2023-02-13T07:58:33;23.73;;;11.00;;
76107;SDS011;64834;52.516;10.528;2023-02-13T08:01:04;26.83;;;12.07;;
76107;SDS011;64834;52.516;10.528;2023-02-13T08:03:33;26.00;;;11.48;;
76107;SDS011;64834;52.516;10.528;2023-02-13T08:05:59;27.30;;;11.50;;
76107;SDS011;64834;52.516;10.528;2023-02-13T08:08:24;25.45;;;10.90;;
76107;SDS011;64834;52.516;10.528;2023-02-13T08:10:49;27.20;;;10.68;;
76107;SDS011;64834;52.516;10.528;2023-02-13T08:13:33;25.10;;;10.07;;
76107;SDS011;64834;52.516;10.528;2023-02-13T08:15:59;22.23;;;10.00;;
76107;SDS011;64834;52.516;10.528;2023-02-13T08:18:24;25.23;;;9.60;;
76107;SDS011;64834;52.516;10.528;2023-02-13T08:20:49;27.33;;;10.32;;
76107;SDS011;64834;52.516;10.528;2023-02-13T08:23:14;23.55;;;9.95;;
76107;SDS011;64834;52.516;10.528;2023-02-13T08:25:40;26.25;;;10.32;;
76107;SDS011;64834;52.516;10.528;2023-02-13T08:28:05;24.95;;;10.18;;
76107;SDS011;64834;52.516;10.528;2023-02-13T08:30:32;23.77;;;10.40;;
76107;SDS011;64834;52.516;10.528;2023-02-13T08:32:57;24.27;;;10.93;;
76107;SDS011;64834;52.516;10.528;2023-02-13T08:35:23;27.50;;;9.82;;
76107;SDS011;64834;52.516;10.528;2023-02-13T08:37:51;24.77;;;10.10;;
76107;SDS011;64834;52.516;10.528;2023-02-13T08:40:20;23.98;;;9.90;;
76107;SDS011;64834;52.516;10.528;2023-02-13T08:42:45;27.52;;;9.95;;
76107;SDS011;64834;52.516;10.528;2023-02-13T08:45:10;25.17;;;9.57;;
76107;SDS011;64834;52.516;10.528;2023-02-13T08:47:36;24.83;;;11.00;;
76107;SDS011;64834;52.516;10.528;2023-02-13T08:50:02;26.23;;;10.80;;
76107;SDS011;64834;52.516;10.528;2023-02-13T08:52:28;25.40;;;9.60;;
76107;SDS011;64834;52.516;10.528;2023-02-13T08:54:53;25.38;;;10.60;;
76107;SDS011;64834;52.516;10.528;2023-02-13T08:57:19;23.35;;;10.07;;
76107;SDS011;64834;52.516;10.528;2023-02-13T08:59:44;24.40;;;10.15;;
76107;SDS011;64834;52.516;10.528;2023-02-13T09:02:10;22.35;;;10.23;;
76107;SDS011;64834;52.516;10.528;2023-02-13T09:04:36;23.55;;;9.68;;
76107;SDS011;64834;52.516;10.528;2023-02-13T09:07:01;20.48;;;8.93;;
76107;SDS011;64834;52.516;10.528;2023-02-13T09:09:26;20.13;;;9.27;;
76107;SDS011;64834;52.516;10.528;2023-02-13T09:11:52;20.27;;;8.73;;
76107;SDS011;64834;52.516;10.528;2023-02-13T09:14:20;23.77;;;9.68;;
76107;SDS011;64834;52.516;10.528;2023-02-13T09:16:45;21.42;;;8.93;;
76107;SDS011;64834;52.516;10.528;2023-02-13T09:19:10;25.85;;;9.32;;
76107;SDS011;64834;52.516;10.528;2023-02-13T09:21:36;24.27;;;9.90;;
76107;SDS011;64834;52.516;10.528;2023-02-13T09:24:01;20.50;;;8.85;;
76107;SDS011;64834;52.516;10.528;2023-02-13T09:26:26;20.73;;;8.30;;
76107;SDS011;64834;52.516;10.528;2023-02-13T09:28:52;19.30;;;8.23;;
76107;SDS011;64834;52.516;10.528;2023-02-13T09:31:20;18.50;;;8.15;;
76107;SDS011;64834;52.516;10.528;2023-02-13T09:33:46;20.02;;;8.23;;
76107;SDS011;64834;52.516;10.528;2023-02-13T09:36:16;19.95;;;8.02;;
76107;SDS011;64834;52.516;10.528;2023-02-13T09:38:44;18.85;;;8.90;;
76107;SDS011;64834;52.516;10.528;2023-02-13T09:41:11;22.60;;;9.07;;
76107;SDS011;64834;52.516;10.528;2023-02-13T09:46:22;13.05;;;6.13;;
76107;SDS011;64834;52.516;10.528;2023-02-13T09:48:58;18.42;;;5.90;;
76107;SDS011;64834;52.516;10.528;2023-02-13T09:51:25;11.43;;;5.38;;
76107;SDS011;64834;52.516;10.528;2023-02-13T09:54:02;14.85;;;5.80;;
76107;SDS011;64834;52.516;10.528;2023-02-13T09:56:38;14.88;;;5.93;;
76107;SDS011;64834;52.516;10.528;2023-02-13T09:59:21;15.40;;;5.80;;
76107;SDS011;64834;52.516;10.528;2023-02-13T10:01:54;13.68;;;5.72;;
76107;SDS011;64834;52.516;10.528;2023-02-13T10:04:28;15.27;;;5.68;;
76107;SDS011;64834;52.516;10.528;2023-02-13T10:09:59;12.82;;;4.70;;
76107;SDS011;64834;52.516;10.528;2023-02-13T10:12:29;14.23;;;5.25;;
76107;SDS011;64834;52.516;10.528;2023-02-13T10:17:58;12.30;;;5.38;;
76107;SDS011;64834;52.516;10.528;2023-02-13T10:20:41;12.80;;;5.63;;
76107;SDS011;64834;52.516;10.528;2023-02-13T10:23:15;11.95;;;5.55;;
76107;SDS011;64834;52.516;10.528;2023-02-13T10:28:36;10.60;;;4.55;;
76107;SDS011;64834;52.516;10.528;2023-02-13T10:31:14;12.05;;;5.32;;
76107;SDS011;64834;52.516;10.528;2023-02-13T10:36:20;10.07;;;4.28;;
76107;SDS011;64834;52.516;10.528;2023-02-13T10:38:54;12.18;;;5.32;;
76107;SDS011;64834;52.516;10.528;2023-02-13T10:50:18;10.18;;;4.88;;
76107;SDS011;64834;52.516;10.528;2023-02-13T10:53:06;9.02;;;4.55;;
76107;SDS011;64834;52.516;10.528;2023-02-13T10:58:44;10.93;;;4.30;;
76107;SDS011;64834;52.516;10.528;2023-02-13T11:01:18;10.15;;;5.18;;
76107;SDS011;64834;52.516;10.528;2023-02-13T11:04:02;10.43;;;4.93;;
76107;SDS011;64834;52.516;10.528;2023-02-13T11:06:31;11.73;;;5.45;;
76107;SDS011;64834;52.516;10.528;2023-02-13T11:08:59;9.57;;;4.03;;
76107;SDS011;64834;52.516;10.528;2023-02-13T11:11:32;10.73;;;4.80;;
76107;SDS011;64834;52.516;10.528;2023-02-13T11:16:37;7.40;;;3.33;;
76107;SDS011;64834;52.516;10.528;2023-02-13T11:19:05;10.60;;;4.13;;
76107;SDS011;64834;52.516;10.528;2023-02-13T11:21:42;7.18;;;3.13;;
76107;SDS011;64834;52.516;10.528;2023-02-13T11:24:14;7.07;;;4.25;;
76107;SDS011;64834;52.516;10.528;2023-02-13T11:26:43;9.25;;;4.15;;
76107;SDS011;64834;52.516;10.528;2023-02-13T11:29:15;8.30;;;3.75;;
76107;SDS011;64834;52.516;10.528;2023-02-13T11:31:45;8.35;;;3.72;;
76107;SDS011;64834;52.516;10.528;2023-02-13T11:34:23;7.40;;;3.72;;
76107;SDS011;64834;52.516;10.528;2023-02-13T11:36:51;6.93;;;3.70;;
76107;SDS011;64834;52.516;10.528;2023-02-13T11:39:19;10.73;;;3.85;;
76107;SDS011;64834;52.516;10.528;2023-02-13T11:41:46;7.97;;;3.88;;
76107;SDS011;64834;52.516;10.528;2023-02-13T11:46:51;9.68;;;3.65;;
76107;SDS011;64834;52.516;10.528;2023-02-13T11:49:28;7.32;;;3.53;;
76107;SDS011;64834;52.516;10.528;2023-02-13T11:55:00;8.95;;;3.33;;
76107;SDS011;64834;52.516;10.528;2023-02-13T11:57:54;6.90;;;3.53;;
76107;SDS011;64834;52.516;10.528;2023-02-13T12:00:46;7.45;;;3.45;;
76107;SDS011;64834;52.516;10.528;2023-02-13T12:05:59;8.23;;;3.78;;
76107;SDS011;64834;52.516;10.528;2023-02-13T12:10:53;6.95;;;3.17;;
76107;SDS011;64834;52.516;10.528;2023-02-13T12:13:30;8.45;;;3.38;;
76107;SDS011;64834;52.516;10.528;2023-02-13T12:16:01;5.32;;;2.75;;
76107;SDS011;64834;52.516;10.528;2023-02-13T12:18:32;9.05;;;3.47;;
76107;SDS011;64834;52.516;10.528;2023-02-13T12:21:22;5.90;;;3.28;;
76107;SDS011;64834;52.516;10.528;2023-02-13T12:24:50;8.80;;;3.30;;
76107;SDS011;64834;52.516;10.528;2023-02-13T12:30:32;6.88;;;3.60;;
76107;SDS011;64834;52.516;10.528;2023-02-13T12:41:20;6.68;;;3.83;;
76107;SDS011;64834;52.516;10.528;2023-02-13T12:43:58;7.28;;;3.67;;
76107;SDS011;64834;52.516;10.528;2023-02-13T12:46:35;8.73;;;3.83;;
76107;SDS011;64834;52.516;10.528;2023-02-13T13:00:41;7.40;;;3.45;;
76107;SDS011;64834;52.516;10.528;2023-02-13T13:03:23;7.00;;;3.35;;
76107;SDS011;64834;52.516;10.528;2023-02-13T13:06:00;7.00;;;3.30;;
76107;SDS011;64834;52.516;10.528;2023-02-13T13:11:44;7.15;;;3.53;;
76107;SDS011;64834;52.516;10.528;2023-02-13T13:17:36;6.28;;;3.30;;
76107;SDS011;64834;52.516;10.528;2023-02-13T13:22:52;7.07;;;3.95;;
76107;SDS011;64834;52.516;10.528;2023-02-13T13:25:24;6.90;;;3.88;;
76107;SDS011;64834;52.516;10.528;2023-02-13T13:28:21;8.43;;;4.35;;
76107;SDS011;64834;52.516;10.528;2023-02-13T13:30:47;8.43;;;4.30;;
76107;SDS011;64834;52.516;10.528;2023-02-13T13:33:17;8.82;;;4.30;;
76107;SDS011;64834;52.516;10.528;2023-02-13T13:35:57;8.18;;;3.70;;
76107;SDS011;64834;52.516;10.528;2023-02-13T13:52:19;6.80;;;3.35;;
76107;SDS011;64834;52.516;10.528;2023-02-13T13:54:52;7.57;;;3.22;;
76107;SDS011;64834;52.516;10.528;2023-02-13T13:57:22;6.20;;;3.30;;
76107;SDS011;64834;52.516;10.528;2023-02-13T14:07:52;5.90;;;3.17;;
76107;SDS011;64834;52.516;10.528;2023-02-13T14:12:45;7.43;;;3.53;;
76107;SDS011;64834;52.516;10.528;2023-02-13T14:15:47;6.13;;;3.42;;
76107;SDS011;64834;52.516;10.528;2023-02-13T14:20:41;6.55;;;3.10;;
76107;SDS011;64834;52.516;10.528;2023-02-13T14:28:42;6.90;;;3.47;;
76107;SDS011;64834;52.516;10.528;2023-02-13T14:31:21;6.53;;;3.03;;
76107;SDS011;64834;52.516;10.528;2023-02-13T14:34:07;7.32;;;3.72;;
76107;SDS011;64834;52.516;10.528;2023-02-13T14:36:44;6.13;;;3.13;;
76107;SDS011;64834;52.516;10.528;2023-02-13T14:41:41;7.75;;;3.13;;
76107;SDS011;64834;52.516;10.528;2023-02-13T14:44:27;5.45;;;2.80;;
76107;SDS011;64834;52.516;10.528;2023-02-13T14:46:57;6.88;;;3.05;;
76107;SDS011;64834;52.516;10.528;2023-02-13T14:49:36;6.15;;;3.25;;
76107;SDS011;64834;52.516;10.528;2023-02-13T14:52:05;5.18;;;2.72;;
76107;SDS011;64834;52.516;10.528;2023-02-13T14:55:21;5.30;;;3.25;;
76107;SDS011;64834;52.516;10.528;2023-02-13T14:57:36;6.13;;;3.13;;
76107;SDS011;64834;52.516;10.528;2023-02-13T15:00:21;5.78;;;2.70;;
76107;SDS011;64834;52.516;10.528;2023-02-13T15:02:55;5.15;;;2.85;;
76107;SDS011;64834;52.516;10.528;2023-02-13T15:05:27;5.38;;;2.70;;
76107;SDS011;64834;52.516;10.528;2023-02-13T15:13:15;5.35;;;2.92;;
76107;SDS011;64834;52.516;10.528;2023-02-13T15:15:42;4.95;;;2.33;;
76107;SDS011;64834;52.516;10.528;2023-02-13T15:23:29;6.57;;;3.15;;
76107;SDS011;64834;52.516;10.528;2023-02-13T15:28:26;5.47;;;2.92;;
76107;SDS011;64834;52.516;10.528;2023-02-13T15:30:57;5.72;;;2.85;;
76107;SDS011;64834;52.516;10.528;2023-02-13T15:33:59;6.78;;;3.47;;
76107;SDS011;64834;52.516;10.528;2023-02-13T15:36:19;6.40;;;2.92;;
76107;SDS011;64834;52.516;10.528;2023-02-13T15:38:47;6.80;;;3.03;;
76107;SDS011;64834;52.516;10.528;2023-02-13T15:41:19;5.95;;;3.45;;
76107;SDS011;64834;52.516;10.528;2023-02-13T15:43:48;5.47;;;3.22;;
76107;SDS011;64834;52.516;10.528;2023-02-13T15:46:29;7.18;;;3.13;;
76107;SDS011;64834;52.516;10.528;2023-02-13T15:48:57;5.47;;;3.05;;
76107;SDS011;64834;52.516;10.528;2023-02-13T15:51:26;8.52;;;3.10;;
76107;SDS011;64834;52.516;10.528;2023-02-13T15:54:02;7.05;;;3.17;;
76107;SDS011;64834;52.516;10.528;2023-02-13T15:56:29;7.18;;;3.40;;
76107;SDS011;64834;52.516;10.528;2023-02-13T15:58:56;6.72;;;3.72;;
76107;SDS011;64834;52.516;10.528;2023-02-13T16:03:49;7.00;;;3.00;;
76107;SDS011;64834;52.516;10.528;2023-02-13T16:06:23;5.85;;;3.05;;
76107;SDS011;64834;52.516;10.528;2023-02-13T16:08:53;8.15;;;3.40;;
76107;SDS011;64834;52.516;10.528;2023-02-13T16:13:56;5.57;;;3.10;;
76107;SDS011;64834;52.516;10.528;2023-02-13T16:16:29;5.07;;;3.05;;
76107;SDS011;64834;52.516;10.528;2023-02-13T16:18:59;5.88;;;2.95;;
76107;SDS011;64834;52.516;10.528;2023-02-13T16:21:25;6.22;;;3.30;;
76107;SDS011;64834;52.516;10.528;2023-02-13T16:23:59;6.60;;;3.47;;
76107;SDS011;64834;52.516;10.528;2023-02-13T16:26:28;7.10;;;3.33;;
76107;SDS011;64834;52.516;10.528;2023-02-13T16:28:53;6.68;;;3.13;;
76107;SDS011;64834;52.516;10.528;2023-02-13T16:31:20;6.47;;;3.50;;
76107;SDS011;64834;52.516;10.528;2023-02-13T16:33:46;8.25;;;3.90;;
76107;SDS011;64834;52.516;10.528;2023-02-13T16:38:44;6.77;;;2.87;;
76107;SDS011;64834;52.516;10.528;2023-02-13T16:43:42;7.70;;;3.65;;
76107;SDS011;64834;52.516;10.528;2023-02-13T16:46:18;9.20;;;3.35;;
76107;SDS011;64834;52.516;10.528;2023-02-13T16:54:04;7.07;;;3.47;;
76107;SDS011;64834;52.516;10.528;2023-02-13T16:56:45;6.32;;;3.40;;
76107;SDS011;64834;52.516;10.528;2023-02-13T17:02:12;6.60;;;3.05;;
76107;SDS011;64834;52.516;10.528;2023-02-13T17:04:40;6.45;;;3.22;;
76107;SDS011;64834;52.516;10.528;2023-02-13T17:07:10;7.03;;;3.25;;
76107;SDS011;64834;52.516;10.528;2023-02-13T17:09:37;8.25;;;3.97;;
76107;SDS011;64834;52.516;10.528;2023-02-13T17:12:03;8.65;;;3.83;;
76107;SDS011;64834;52.516;10.528;2023-02-13T17:14:28;9.65;;;3.88;;
76107;SDS011;64834;52.516;10.528;2023-02-13T17:16:54;10.05;;;4.15;;
76107;SDS011;64834;52.516;10.528;2023-02-13T17:19:19;9.00;;;4.50;;
76107;SDS011;64834;52.516;10.528;2023-02-13T17:21:44;7.43;;;4.18;;
76107;SDS011;64834;52.516;10.528;2023-02-13T17:24:15;9.20;;;4.13;;
76107;SDS011;64834;52.516;10.528;2023-02-13T17:26:41;8.25;;;4.43;;
76107;SDS011;64834;52.516;10.528;2023-02-13T17:29:07;9.45;;;4.47;;
76107;SDS011;64834;52.516;10.528;2023-02-13T17:31:32;8.63;;;4.68;;
76107;SDS011;64834;52.516;10.528;2023-02-13T17:33:57;8.65;;;4.40;;